createdAt,value
2023-05-05T00:00:59.421Z,1.92
2023-05-05T00:03:27.123Z,2.45
2023-05-05T00:05:55.066Z,2.83
2023-05-05T00:08:22.986Z,1.85
2023-05-05T00:10:51.784Z,3.08
2023-05-05T00:13:20.269Z,1.67
2023-05-05T00:15:50.713Z,2.22
2023-05-05T00:18:18.758Z,3.75
2023-05-05T00:20:49.179Z,1.60
2023-05-05T00:23:16.999Z,1.48
2023-05-05T00:25:44.106Z,1.63
2023-05-05T00:28:11.540Z,2.95
2023-05-05T00:30:39.871Z,1.20
2023-05-05T00:33:07.077Z,4.15
2023-05-05T00:35:34.519Z,1.90
2023-05-05T00:38:01.515Z,2.10
2023-05-05T00:40:28.757Z,2.47
2023-05-05T00:42:55.728Z,2.20
2023-05-05T00:45:22.975Z,3.45
2023-05-05T00:47:53.078Z,1.85
2023-05-05T00:50:25.601Z,3.95
2023-05-05T00:52:58.032Z,3.78
2023-05-05T00:55:25.064Z,3.38
2023-05-05T00:57:52.125Z,2.50
2023-05-05T01:00:19.044Z,2.22
2023-05-05T01:02:46.138Z,4.43
2023-05-05T01:05:15.749Z,2.55
2023-05-05T01:07:51.589Z,2.13
2023-05-05T01:10:45.529Z,2.70
2023-05-05T01:13:30.739Z,3.13
2023-05-05T01:16:27.237Z,1.85
2023-05-05T01:18:59.964Z,2.83
2023-05-05T01:21:34.111Z,2.38
2023-05-05T01:24:14.445Z,2.85
2023-05-05T01:27:22.983Z,1.70
2023-05-05T01:29:58.991Z,2.40
2023-05-05T01:32:28.714Z,2.58
2023-05-05T01:35:03.277Z,3.33
2023-05-05T01:37:43.861Z,3.03
2023-05-05T01:40:13.455Z,2.65
2023-05-05T01:42:43.852Z,1.88
2023-05-05T01:45:14.112Z,4.30
2023-05-05T01:47:43.088Z,3.17
2023-05-05T01:50:11.852Z,2.13
2023-05-05T01:52:40.452Z,4.43
2023-05-05T01:55:09.783Z,3.53
2023-05-05T01:57:39.830Z,2.80
2023-05-05T02:00:08.278Z,3.80
2023-05-05T02:02:38.058Z,2.85
2023-05-05T02:05:07.352Z,1.70
2023-05-05T02:07:35.449Z,3.45
2023-05-05T02:10:04.013Z,2.65
2023-05-05T02:12:32.117Z,2.65
2023-05-05T02:15:00.743Z,3.58
2023-05-05T02:17:29.576Z,3.10
2023-05-05T02:19:59.336Z,2.78
2023-05-05T02:22:26.336Z,2.72
2023-05-05T02:24:53.816Z,3.28
2023-05-05T02:27:24.287Z,3.55
2023-05-05T02:29:57.004Z,3.00
2023-05-05T02:32:49.384Z,3.53
2023-05-05T02:35:20.394Z,2.58
2023-05-05T02:37:55.142Z,5.07
2023-05-05T02:40:24.851Z,3.45
2023-05-05T02:42:54.708Z,2.90
2023-05-05T02:45:23.776Z,2.13
2023-05-05T02:47:50.732Z,4.03
2023-05-05T02:50:17.848Z,4.45
2023-05-05T02:52:46.121Z,2.85
2023-05-05T02:55:13.722Z,2.47
2023-05-05T02:57:43.245Z,3.33
2023-05-05T03:00:18.968Z,4.30
2023-05-05T03:02:54.834Z,3.30
2023-05-05T03:05:24.384Z,3.88
2023-05-05T03:07:56.694Z,4.05
2023-05-05T03:10:30.457Z,4.57
2023-05-05T03:13:01.295Z,3.97
2023-05-05T03:15:43.756Z,5.65
2023-05-05T03:18:12.478Z,2.67
2023-05-05T03:20:40.929Z,3.38
2023-05-05T03:23:08.445Z,5.55
2023-05-05T03:25:45.236Z,4.40
2023-05-05T03:28:12.370Z,3.15
2023-05-05T03:30:39.480Z,3.58
2023-05-05T03:33:06.525Z,4.65
2023-05-05T03:35:33.688Z,2.63
2023-05-05T03:38:00.672Z,2.22
2023-05-05T03:40:40.311Z,4.97
2023-05-05T03:43:11.065Z,5.40
2023-05-05T03:45:38.102Z,4.20
2023-05-05T03:48:05.531Z,3.92
2023-05-05T03:50:32.550Z,3.35
2023-05-05T03:52:59.480Z,6.78
2023-05-05T03:55:26.451Z,3.53
2023-05-05T03:57:53.433Z,6.70
2023-05-05T04:00:20.444Z,3.55
2023-05-05T04:02:47.545Z,3.72
2023-05-05T04:05:14.682Z,3.28
2023-05-05T04:07:41.635Z,2.80
2023-05-05T04:10:09.417Z,6.32
2023-05-05T04:12:36.561Z,4.15
2023-05-05T04:15:03.610Z,7.30
2023-05-05T04:17:30.574Z,3.88
2023-05-05T04:19:57.568Z,5.22
2023-05-05T04:22:24.542Z,4.93
2023-05-05T04:24:52.095Z,5.35
2023-05-05T04:27:19.061Z,5.43
2023-05-05T04:29:46.167Z,14.45
2023-05-05T04:32:13.111Z,29.10
2023-05-05T04:34:40.233Z,12.13
2023-05-05T04:37:07.201Z,9.20
2023-05-05T04:39:34.149Z,11.85
2023-05-05T04:42:01.077Z,12.27
2023-05-05T04:44:28.337Z,12.52
2023-05-05T04:46:55.386Z,9.18
2023-05-05T04:49:22.374Z,11.57
2023-05-05T04:51:49.394Z,5.93
2023-05-05T04:54:16.398Z,6.03
2023-05-05T04:56:43.408Z,10.05
2023-05-05T04:59:10.282Z,7.97
2023-05-05T05:01:38.567Z,9.13
2023-05-05T05:04:06.010Z,8.35
2023-05-05T05:06:33.188Z,16.25
2023-05-05T05:09:00.453Z,59.17
2023-05-05T05:11:27.596Z,32.00
2023-05-05T05:13:54.817Z,17.48
2023-05-05T05:16:22.302Z,11.52
2023-05-05T05:18:49.228Z,19.85
2023-05-05T05:21:16.184Z,13.00
2023-05-05T05:23:43.107Z,11.98
2023-05-05T05:26:10.146Z,19.73
2023-05-05T05:28:37.088Z,15.25
2023-05-05T05:31:05.193Z,23.13
2023-05-05T05:33:32.401Z,15.68
2023-05-05T05:36:00.653Z,15.35
2023-05-05T05:38:27.618Z,23.70
2023-05-05T05:40:54.960Z,15.85
2023-05-05T05:43:21.896Z,10.20
2023-05-05T05:45:48.896Z,13.57
2023-05-05T05:48:15.925Z,8.63
2023-05-05T05:50:43.428Z,12.13
2023-05-05T05:53:10.406Z,19.77
2023-05-05T05:55:37.353Z,15.02
2023-05-05T05:58:04.369Z,34.60
2023-05-05T06:00:31.267Z,12.07
2023-05-05T06:02:58.311Z,17.40
2023-05-05T06:05:25.398Z,30.20
2023-05-05T06:07:52.293Z,29.45
2023-05-05T06:10:27.840Z,25.60
2023-05-05T06:12:55.281Z,15.77
2023-05-05T06:15:22.359Z,14.55
2023-05-05T06:17:49.559Z,17.85
2023-05-05T06:20:16.675Z,15.43
2023-05-05T06:22:43.635Z,18.25
2023-05-05T06:25:11.510Z,12.60
2023-05-05T06:27:38.574Z,18.83
2023-05-05T06:30:07.256Z,26.27
2023-05-05T06:32:34.607Z,39.22
2023-05-05T06:35:01.871Z,32.92
2023-05-05T06:37:28.910Z,44.72
2023-05-05T06:39:57.228Z,22.88
2023-05-05T06:42:24.253Z,18.88
2023-05-05T06:44:51.636Z,19.58
2023-05-05T06:47:18.786Z,15.20
2023-05-05T06:49:45.903Z,13.25
2023-05-05T06:52:13.054Z,13.73
2023-05-05T06:54:40.084Z,11.05
2023-05-05T06:57:07.068Z,15.73
2023-05-05T06:59:34.036Z,10.23
2023-05-05T07:02:01.124Z,13.77
2023-05-05T07:04:28.509Z,10.77
2023-05-05T07:06:55.857Z,11.98
2023-05-05T07:09:22.914Z,9.15
2023-05-05T07:11:50.197Z,7.47
2023-05-05T07:14:17.226Z,10.57
2023-05-05T07:16:44.720Z,13.90
2023-05-05T07:19:11.725Z,9.07
2023-05-05T07:21:40.522Z,10.20
2023-05-05T07:24:07.874Z,8.50
2023-05-05T07:26:35.248Z,7.88
2023-05-05T07:29:04.830Z,12.77
2023-05-05T07:31:32.228Z,11.00
2023-05-05T07:33:59.472Z,9.13
2023-05-05T07:36:28.199Z,9.50
2023-05-05T07:38:55.335Z,9.98
2023-05-05T07:41:22.455Z,7.38
2023-05-05T07:43:49.584Z,9.38
2023-05-05T07:46:20.244Z,8.18
2023-05-05T07:48:47.547Z,9.82
2023-05-05T07:51:14.745Z,10.73
2023-05-05T07:53:41.972Z,6.50
2023-05-05T07:56:09.319Z,7.53
2023-05-05T07:58:36.672Z,11.30
2023-05-05T08:01:06.936Z,8.27
2023-05-05T08:03:34.406Z,11.33
2023-05-05T08:06:09.419Z,7.95
2023-05-05T08:08:37.055Z,6.57
2023-05-05T08:11:04.904Z,9.48
2023-05-05T08:13:32.107Z,5.97
2023-05-05T08:15:59.301Z,6.88
2023-05-05T08:18:26.959Z,7.80
2023-05-05T08:20:55.168Z,10.48
2023-05-05T08:23:22.299Z,7.47
2023-05-05T08:25:50.373Z,10.45
2023-05-05T08:28:17.527Z,7.82
2023-05-05T08:30:45.218Z,6.65
2023-05-05T08:33:12.792Z,9.63
2023-05-05T08:35:40.382Z,9.48
2023-05-05T08:38:07.583Z,9.57
2023-05-05T08:40:37.460Z,8.68
2023-05-05T08:43:05.295Z,7.68
2023-05-05T08:45:33.360Z,6.88
2023-05-05T08:48:05.793Z,7.53
2023-05-05T08:50:33.628Z,7.68
2023-05-05T08:53:10.868Z,10.07
2023-05-05T08:55:57.056Z,7.65
2023-05-05T08:58:24.151Z,5.60
2023-05-05T09:00:52.697Z,7.40
2023-05-05T09:03:20.444Z,8.27
2023-05-05T09:05:48.275Z,7.93
2023-05-05T09:08:15.440Z,7.78
2023-05-05T09:10:43.320Z,7.78
2023-05-05T09:13:10.859Z,7.15
2023-05-05T09:15:58.779Z,15.02
2023-05-05T09:18:26.558Z,12.00
2023-05-05T09:20:53.831Z,18.17
2023-05-05T09:23:22.264Z,21.55
2023-05-05T09:26:05.160Z,18.45
2023-05-05T09:28:32.965Z,14.75
2023-05-05T09:31:14.429Z,13.52
2023-05-05T09:33:41.880Z,12.35
2023-05-05T09:36:09.291Z,12.00
2023-05-05T09:38:37.381Z,10.38
2023-05-05T09:41:05.884Z,8.55
2023-05-05T09:43:52.245Z,12.02
2023-05-05T09:46:19.424Z,14.93
2023-05-05T09:48:46.888Z,14.80
2023-05-05T09:51:14.107Z,10.55
2023-05-05T09:53:42.986Z,8.30
2023-05-05T09:56:10.816Z,9.20
2023-05-05T09:58:38.149Z,11.48
2023-05-05T10:01:05.312Z,11.02
2023-05-05T10:03:32.683Z,10.90
2023-05-05T10:06:01.361Z,9.60
2023-05-05T10:08:31.833Z,9.68
2023-05-05T10:11:01.281Z,8.00
2023-05-05T10:13:29.242Z,9.43
2023-05-05T10:15:58.160Z,9.07
2023-05-05T10:18:27.309Z,12.00
2023-05-05T10:21:02.703Z,10.65
2023-05-05T10:23:38.970Z,10.15
2023-05-05T10:26:07.854Z,9.90
2023-05-05T10:28:42.654Z,12.13
2023-05-05T10:31:34.321Z,12.18
2023-05-05T10:34:06.598Z,13.93
2023-05-05T10:36:34.901Z,13.45
2023-05-05T10:39:03.771Z,12.23
2023-05-05T10:41:32.611Z,13.38
2023-05-05T10:44:02.061Z,8.55
2023-05-05T10:49:12.471Z,9.45
2023-05-05T10:51:56.296Z,11.60
2023-05-05T10:54:38.629Z,10.27
2023-05-05T10:57:10.091Z,10.20
2023-05-05T10:59:38.354Z,10.50
2023-05-05T11:02:30.060Z,10.68
2023-05-05T11:07:37.441Z,13.55
2023-05-05T11:10:08.864Z,11.82
2023-05-05T11:12:54.974Z,16.92
2023-05-05T11:15:28.312Z,11.05
2023-05-05T11:17:56.210Z,15.10
2023-05-05T11:20:40.098Z,13.27
2023-05-05T11:23:07.363Z,12.27
2023-05-05T11:25:38.074Z,12.77
2023-05-05T11:28:10.660Z,15.48
2023-05-05T11:30:59.232Z,12.77
2023-05-05T11:33:31.605Z,11.25
2023-05-05T11:36:06.128Z,14.07
2023-05-05T11:38:57.216Z,15.75
2023-05-05T11:41:33.637Z,13.70
2023-05-05T11:44:18.297Z,15.55
2023-05-05T11:46:51.096Z,14.82
2023-05-05T11:49:31.887Z,12.82
2023-05-05T11:52:04.372Z,15.50
2023-05-05T11:54:32.495Z,22.08
2023-05-05T11:57:02.613Z,23.00
2023-05-05T11:59:30.573Z,19.40
2023-05-05T12:01:59.999Z,18.27
2023-05-05T12:04:27.240Z,17.95
2023-05-05T12:06:55.847Z,18.42
2023-05-05T12:09:23.619Z,14.30
2023-05-05T12:11:53.767Z,12.90
2023-05-05T12:14:22.054Z,17.75
2023-05-05T12:17:03.186Z,17.10
2023-05-05T12:19:33.494Z,16.23
2023-05-05T12:22:05.611Z,14.87
2023-05-05T12:24:32.875Z,15.57
2023-05-05T12:27:10.104Z,15.27
2023-05-05T12:29:37.332Z,16.55
2023-05-05T12:32:05.232Z,13.98
2023-05-05T12:34:33.448Z,13.50
2023-05-05T12:37:02.155Z,14.07
2023-05-05T12:39:37.027Z,17.48
2023-05-05T12:42:07.447Z,14.00
2023-05-05T12:44:38.298Z,15.18
2023-05-05T12:47:06.067Z,16.17
2023-05-05T12:49:45.432Z,14.57
2023-05-05T12:52:12.888Z,16.10
2023-05-05T12:55:00.444Z,13.35
2023-05-05T12:57:27.640Z,14.57
2023-05-05T12:59:55.066Z,15.50
2023-05-05T13:02:22.597Z,15.93
2023-05-05T13:04:54.095Z,14.95
2023-05-05T13:07:22.810Z,13.55
2023-05-05T13:09:51.385Z,16.08
2023-05-05T13:12:19.329Z,17.33
2023-05-05T13:14:47.341Z,14.38
2023-05-05T13:17:15.342Z,12.40
2023-05-05T13:19:43.321Z,13.77
2023-05-05T13:22:10.832Z,10.48
2023-05-05T13:24:49.747Z,12.38
2023-05-05T13:27:18.744Z,11.77
2023-05-05T13:29:45.780Z,11.65
2023-05-05T13:32:13.144Z,12.88
2023-05-05T13:34:40.413Z,13.05
2023-05-05T13:37:07.639Z,13.02
2023-05-05T13:39:34.863Z,11.60
2023-05-05T13:42:02.920Z,15.70
2023-05-05T13:44:29.932Z,12.73
2023-05-05T13:46:59.985Z,13.25
2023-05-05T13:49:27.388Z,14.18
2023-05-05T13:51:55.610Z,13.85
2023-05-05T13:54:22.850Z,15.15
2023-05-05T13:56:49.886Z,15.50
2023-05-05T13:59:17.423Z,17.23
2023-05-05T14:01:45.127Z,15.35
2023-05-05T14:04:12.714Z,16.60
2023-05-05T14:06:40.596Z,18.42
2023-05-05T14:09:09.355Z,12.68
2023-05-05T14:11:36.543Z,13.40
2023-05-05T14:14:03.812Z,19.23
2023-05-05T14:16:31.823Z,12.20
2023-05-05T14:18:59.736Z,15.13
2023-05-05T14:21:27.420Z,14.32
2023-05-05T14:23:54.531Z,15.05
2023-05-05T14:26:21.889Z,15.57
2023-05-05T14:28:50.145Z,16.60
2023-05-05T14:31:18.136Z,14.88
2023-05-05T14:33:45.278Z,13.00
2023-05-05T14:36:12.284Z,16.55
2023-05-05T14:38:39.474Z,17.73
2023-05-05T14:41:06.699Z,14.60
2023-05-05T14:43:34.022Z,13.30
2023-05-05T14:46:06.447Z,18.20
2023-05-05T14:48:34.624Z,13.85
2023-05-05T14:51:02.089Z,23.50
2023-05-05T14:53:29.328Z,19.40
2023-05-05T14:55:56.724Z,17.85
2023-05-05T14:58:25.030Z,18.83
2023-05-05T15:00:53.229Z,16.30
2023-05-05T15:03:20.842Z,23.48
2023-05-05T15:05:47.990Z,23.45
2023-05-05T15:08:15.043Z,14.95
2023-05-05T15:10:42.209Z,23.13
2023-05-05T15:13:09.583Z,16.95
2023-05-05T15:15:36.857Z,25.75
2023-05-05T15:18:04.079Z,18.45
2023-05-05T15:20:31.430Z,20.23
2023-05-05T15:22:58.663Z,16.67
2023-05-05T15:25:25.803Z,19.33
2023-05-05T15:27:53.397Z,21.75
2023-05-05T15:30:20.488Z,20.35
2023-05-05T15:32:47.530Z,17.48
2023-05-05T15:35:14.849Z,19.90
2023-05-05T15:37:43.092Z,16.55
2023-05-05T15:40:10.587Z,17.83
2023-05-05T15:42:38.335Z,13.05
2023-05-05T15:45:06.287Z,15.55
2023-05-05T15:47:33.485Z,20.52
2023-05-05T15:50:00.595Z,17.27
2023-05-05T15:52:27.799Z,53.20
2023-05-05T15:54:54.869Z,29.33
2023-05-05T15:57:21.976Z,23.23
2023-05-05T15:59:55.229Z,33.95
2023-05-05T16:02:22.764Z,31.65
2023-05-05T16:04:49.883Z,111.15
2023-05-05T16:07:17.847Z,44.63
2023-05-05T16:09:44.986Z,92.53
2023-05-05T16:12:12.333Z,40.58
2023-05-05T16:14:39.425Z,41.97
2023-05-05T16:17:08.269Z,36.67
2023-05-05T16:19:35.292Z,117.03
2023-05-05T16:22:02.496Z,56.83
2023-05-05T16:24:29.582Z,57.90
2023-05-05T16:26:56.655Z,47.50
2023-05-05T16:29:23.719Z,43.25
2023-05-05T16:31:50.863Z,45.90
2023-05-05T16:34:18.099Z,33.70
2023-05-05T16:36:45.190Z,55.55
2023-05-05T16:39:12.466Z,40.05
2023-05-05T16:41:40.284Z,39.20
2023-05-05T16:44:07.544Z,30.30
2023-05-05T16:46:37.888Z,35.60
2023-05-05T16:49:04.929Z,47.53
2023-05-05T16:51:32.229Z,36.83
2023-05-05T16:53:59.629Z,38.70
2023-05-05T16:56:26.922Z,89.80
2023-05-05T16:58:54.064Z,46.40
2023-05-05T17:01:21.073Z,41.78
2023-05-05T17:03:48.408Z,44.58
2023-05-05T17:06:15.630Z,35.47
2023-05-05T17:08:42.832Z,37.42
2023-05-05T17:11:11.698Z,30.90
2023-05-05T17:13:39.099Z,33.78
2023-05-05T17:16:07.268Z,30.40
2023-05-05T17:18:34.566Z,33.85
2023-05-05T17:21:01.744Z,28.38
2023-05-05T17:23:30.137Z,33.25
2023-05-05T17:25:59.280Z,28.33
2023-05-05T17:28:27.103Z,20.92
2023-05-05T17:30:54.391Z,23.85
2023-05-05T17:33:22.753Z,31.27
2023-05-05T17:35:50.014Z,25.38
2023-05-05T17:38:18.532Z,62.38
2023-05-05T17:40:45.607Z,42.40
2023-05-05T17:43:12.837Z,48.72
2023-05-05T17:45:40.012Z,49.95
2023-05-05T17:48:07.222Z,49.92
2023-05-05T17:50:34.379Z,36.78
2023-05-05T17:53:02.309Z,39.78
2023-05-05T17:55:29.402Z,33.47
2023-05-05T17:57:57.771Z,28.33
2023-05-05T18:00:25.189Z,25.05
2023-05-05T18:02:52.503Z,31.50
2023-05-05T18:05:20.437Z,29.90
2023-05-05T18:07:47.600Z,33.53
2023-05-05T18:10:14.940Z,27.48
2023-05-05T18:12:45.271Z,43.85
2023-05-05T18:15:12.751Z,29.67
2023-05-05T18:17:40.127Z,34.42
2023-05-05T18:20:07.911Z,36.85
2023-05-05T18:22:37.008Z,32.05
2023-05-05T18:25:05.916Z,34.22
2023-05-05T18:27:36.325Z,32.25
2023-05-05T18:30:05.292Z,28.45
2023-05-05T18:32:33.010Z,18.77
2023-05-05T18:35:00.324Z,17.25
2023-05-05T18:37:28.446Z,25.10
2023-05-05T18:39:56.118Z,14.60
2023-05-05T18:42:23.590Z,12.57
2023-05-05T18:44:51.306Z,22.20
2023-05-05T18:47:18.478Z,19.42
2023-05-05T18:49:46.160Z,17.63
2023-05-05T18:52:14.199Z,19.23
2023-05-05T18:54:41.514Z,24.58
2023-05-05T18:57:09.261Z,19.35
2023-05-05T18:59:36.276Z,19.40
2023-05-05T19:02:04.369Z,28.00
2023-05-05T19:04:33.086Z,36.47
2023-05-05T19:07:00.740Z,36.05
2023-05-05T19:09:28.345Z,30.20
2023-05-05T19:11:55.992Z,18.92
2023-05-05T19:14:23.753Z,30.70
2023-05-05T19:16:51.499Z,19.45
2023-05-05T19:19:20.098Z,20.83
2023-05-05T19:21:47.449Z,16.90
2023-05-05T19:24:14.823Z,38.22
2023-05-05T19:26:44.519Z,32.15
2023-05-05T19:29:12.048Z,35.90
2023-05-05T19:31:39.363Z,18.80
2023-05-05T19:34:06.810Z,31.05
2023-05-05T19:36:34.777Z,20.52
2023-05-05T19:39:03.779Z,17.52
2023-05-05T19:41:31.760Z,24.45
2023-05-05T19:43:59.008Z,16.10
2023-05-05T19:46:27.020Z,24.15
2023-05-05T19:48:54.349Z,13.82
2023-05-05T19:51:21.764Z,20.08
2023-05-05T19:53:49.165Z,15.60
2023-05-05T19:56:17.549Z,13.93
2023-05-05T19:58:56.250Z,13.63
2023-05-05T20:01:24.611Z,12.80
2023-05-05T20:03:54.832Z,10.60
2023-05-05T20:06:24.734Z,15.87
2023-05-05T20:08:54.935Z,10.65
2023-05-05T20:11:22.501Z,10.80
2023-05-05T20:13:50.459Z,9.82
2023-05-05T20:16:18.497Z,11.95
2023-05-05T20:18:45.770Z,12.52
2023-05-05T20:21:13.288Z,11.30
2023-05-05T20:23:40.993Z,17.17
2023-05-05T20:26:08.521Z,11.02
2023-05-05T20:28:36.458Z,10.02
2023-05-05T20:31:03.759Z,12.85
2023-05-05T20:33:31.982Z,15.05
2023-05-05T20:35:59.878Z,9.45
2023-05-05T20:38:27.554Z,13.57
2023-05-05T20:40:56.128Z,12.60
2023-05-05T20:43:26.020Z,18.65
2023-05-05T20:45:53.484Z,9.75
2023-05-05T20:48:20.813Z,25.15
2023-05-05T20:50:48.276Z,36.97
2023-05-05T20:53:19.521Z,18.83
2023-05-05T20:55:47.075Z,24.40
2023-05-05T20:58:14.629Z,22.23
2023-05-05T21:00:42.452Z,27.60
2023-05-05T21:03:10.080Z,29.30
2023-05-05T21:05:37.734Z,27.90
2023-05-05T21:08:06.392Z,31.38
2023-05-05T21:10:34.486Z,18.42
2023-05-05T21:13:02.883Z,23.77
2023-05-05T21:15:32.916Z,17.83
2023-05-05T21:18:01.982Z,27.83
2023-05-05T21:20:29.684Z,12.82
2023-05-05T21:22:59.867Z,17.17
2023-05-05T21:25:27.667Z,25.60
2023-05-05T21:27:55.128Z,51.20
2023-05-05T21:30:24.282Z,25.20
2023-05-05T21:32:53.494Z,20.30
2023-05-05T21:35:21.002Z,21.55
2023-05-05T21:37:49.464Z,19.02
2023-05-05T21:40:17.197Z,17.88
2023-05-05T21:42:44.531Z,16.02
2023-05-05T21:45:12.545Z,10.23
2023-05-05T21:47:39.953Z,11.90
2023-05-05T21:50:08.195Z,15.90
2023-05-05T21:52:35.772Z,11.90
2023-05-05T21:55:03.141Z,10.65
2023-05-05T21:57:30.314Z,6.47
2023-05-05T21:59:57.695Z,11.77
2023-05-05T22:02:25.307Z,11.75
2023-05-05T22:04:52.684Z,8.43
2023-05-05T22:07:20.112Z,10.10
2023-05-05T22:09:47.709Z,8.65
2023-05-05T22:12:14.973Z,8.57
2023-05-05T22:14:42.462Z,15.20
2023-05-05T22:17:12.524Z,9.00
2023-05-05T22:19:39.568Z,7.18
2023-05-05T22:22:07.539Z,6.68
2023-05-05T22:24:35.069Z,7.35
2023-05-05T22:27:02.314Z,7.68
2023-05-05T22:29:29.827Z,6.38
2023-05-05T22:31:57.297Z,8.30
2023-05-05T22:34:24.465Z,5.43
2023-05-05T22:36:51.717Z,10.57
2023-05-05T22:39:18.998Z,6.93
2023-05-05T22:41:47.730Z,6.95
2023-05-05T22:44:14.977Z,7.13
2023-05-05T22:46:42.556Z,7.60
2023-05-05T22:49:09.955Z,7.60
2023-05-05T22:51:37.368Z,7.82
2023-05-05T22:54:04.848Z,7.60
2023-05-05T22:56:32.176Z,4.65
2023-05-05T22:58:59.367Z,7.63
2023-05-05T23:01:26.744Z,9.88
2023-05-05T23:03:53.961Z,5.28
2023-05-05T23:06:21.051Z,6.85
2023-05-05T23:08:49.329Z,7.45
2023-05-05T23:11:16.782Z,6.45
2023-05-05T23:13:43.790Z,6.30
2023-05-05T23:16:11.030Z,5.15
2023-05-05T23:18:39.088Z,5.30
2023-05-05T23:21:06.535Z,5.80
2023-05-05T23:23:33.613Z,4.97
2023-05-05T23:26:00.727Z,7.75
2023-05-05T23:28:27.837Z,6.78
2023-05-05T23:30:54.967Z,4.13
2023-05-05T23:33:22.016Z,5.57
2023-05-05T23:35:49.061Z,4.35
2023-05-05T23:38:16.604Z,4.50
2023-05-05T23:40:43.547Z,4.47
2023-05-05T23:43:12.325Z,5.68
2023-05-05T23:45:39.420Z,4.70
2023-05-05T23:48:06.583Z,4.05
2023-05-05T23:50:33.629Z,4.13
2023-05-05T23:53:00.680Z,4.85
2023-05-05T23:55:27.766Z,4.93
2023-05-05T23:57:54.760Z,4.32
